Time;durP1;ratioP1;P1;durP2;ratioP2;P2;SDS_P1;SDS_P2;PMS_P1;PMS_P2;Temp;Humidity;BMP_temperature;BMP_pressure;BME280_temperature;BME280_humidity;BME280_pressure;Samples;Min_cycle;Max_cycle;Signal;HPM_P1;HPM_P2
2022/11/19 06:00:29;;;;;;;2.43;2.20;;;9.10;97.20;;;;;;1707341;29;20648;-71
2022/11/19 06:01:24;;;;;;;2.30;2.10;;;9.10;97.20;;;;;;1707242;29;20213;-71
2022/11/19 06:02:16;;;;;;;2.00;1.88;;;9.10;97.20;;;;;;1707381;29;20668;-71
2022/11/19 06:03:08;;;;;;;2.45;2.17;;;9.10;97.20;;;;;;1707319;29;20218;-70
2022/11/19 06:03:59;;;;;;;2.63;2.42;;;9.10;97.20;;;;;;1707033;29;20285;-70
2022/11/19 06:04:50;;;;;;;2.50;2.30;;;9.10;97.20;;;;;;1707219;29;20254;-71
2022/11/19 06:05:42;;;;;;;2.27;2.07;;;9.10;97.20;;;;;;1707322;29;20203;-70
2022/11/19 06:06:33;;;;;;;2.55;1.92;;;9.10;97.20;;;;;;1707361;29;20206;-70
2022/11/19 06:07:24;;;;;;;2.23;2.13;;;9.10;97.20;;;;;;1707319;29;20213;-71
2022/11/19 06:08:15;;;;;;;2.22;2.03;;;9.00;97.20;;;;;;1707382;29;20593;-71
2022/11/19 06:09:07;;;;;;;2.73;2.00;;;9.00;97.20;;;;;;1707320;29;20206;-71
2022/11/19 06:09:57;;;;;;;2.53;2.22;;;9.10;97.20;;;;;;1707281;29;20206;-70
2022/11/19 06:10:49;;;;;;;2.07;1.97;;;9.00;97.20;;;;;;1707258;29;20214;-72
2022/11/19 06:11:49;;;;;;;2.55;2.35;;;9.00;97.20;;;;;;1707274;29;20206;-71
2022/11/19 06:12:42;;;;;;;2.22;2.03;;;9.00;97.20;;;;;;1707392;29;20207;-70
2022/11/19 06:13:33;;;;;;;2.17;2.08;;;9.10;97.20;;;;;;1707081;29;20579;-71
2022/11/19 06:14:26;;;;;;;2.30;2.10;;;9.00;97.20;;;;;;1707254;29;20201;-70
2022/11/19 06:15:17;;;;;;;2.17;1.98;;;9.00;97.20;;;;;;1707283;29;20225;-71
2022/11/19 06:16:10;;;;;;;3.50;2.40;;;9.00;97.20;;;;;;1707237;29;20285;-71
2022/11/19 06:17:01;;;;;;;4.63;2.35;;;9.00;97.20;;;;;;1707173;29;20206;-71
2022/11/19 06:17:52;;;;;;;2.40;2.20;;;9.00;97.20;;;;;;1707364;29;20198;-70
2022/11/19 06:18:43;;;;;;;2.58;2.10;;;9.00;97.20;;;;;;1707280;29;20213;-70
2022/11/19 06:19:35;;;;;;;2.60;2.13;;;9.00;97.20;;;;;;1707335;29;20213;-70
2022/11/19 06:20:25;;;;;;;2.40;2.20;;;9.00;97.20;;;;;;1707252;29;20199;-70
2022/11/19 06:21:17;;;;;;;3.13;1.97;;;9.00;97.20;;;;;;1707259;29;20743;-70
2022/11/19 06:22:08;;;;;;;2.50;2.30;;;9.00;97.20;;;;;;1707337;29;20233;-71
2022/11/19 06:23:00;;;;;;;1.80;1.70;;;9.00;97.20;;;;;;1707322;29;20221;-70
2022/11/19 06:23:51;;;;;;;2.38;2.17;;;9.10;97.20;;;;;;1707030;29;20866;-71
2022/11/19 06:24:42;;;;;;;2.27;2.07;;;9.10;97.20;;;;;;1707030;29;20617;-71
2022/11/19 06:25:33;;;;;;;4.10;2.45;;;9.10;97.20;;;;;;1705704;29;20198;-70
2022/11/19 06:26:26;;;;;;;2.13;1.93;;;9.10;97.20;;;;;;1700883;29;20690;-70
2022/11/19 06:27:17;;;;;;;2.20;2.00;;;9.10;97.20;;;;;;1703064;29;20465;-70
2022/11/19 06:28:09;;;;;;;5.13;2.57;;;9.10;97.20;;;;;;1707342;29;20209;-70
2022/11/19 06:29:00;;;;;;;1.73;1.63;;;9.10;97.20;;;;;;1707207;29;20661;-70
2022/11/19 06:29:52;;;;;;;1.60;1.50;;;9.10;97.20;;;;;;1707300;29;20633;-70
2022/11/19 06:30:42;;;;;;;2.40;2.20;;;9.20;97.20;;;;;;1706994;29;20230;-70
2022/11/19 06:31:35;;;;;;;2.73;2.10;;;9.20;97.20;;;;;;1707208;29;20202;-71
2022/11/19 06:32:27;;;;;;;2.03;1.80;;;9.20;97.20;;;;;;1707288;29;20485;-70
2022/11/19 06:33:18;;;;;;;2.00;1.80;;;9.20;97.20;;;;;;1707130;29;20206;-71
2022/11/19 06:34:10;;;;;;;2.50;2.30;;;9.20;97.20;;;;;;1707299;29;20206;-71
2022/11/19 06:35:02;;;;;;;2.65;2.33;;;9.30;97.20;;;;;;1706465;29;20453;-71
2022/11/19 06:35:52;;;;;;;3.58;2.40;;;9.30;97.20;;;;;;1706556;29;20203;-71
2022/11/19 06:36:44;;;;;;;3.47;2.23;;;9.30;97.20;;;;;;1701028;29;20199;-71
2022/11/19 06:37:35;;;;;;;2.58;2.30;;;9.30;97.20;;;;;;1700619;29;20207;-70
2022/11/19 06:38:27;;;;;;;3.00;2.67;;;9.30;97.20;;;;;;1700611;29;20234;-71
2022/11/19 06:39:18;;;;;;;2.80;2.30;;;9.30;97.20;;;;;;1700664;29;20211;-71
2022/11/19 06:40:11;;;;;;;2.63;2.43;;;9.20;97.20;;;;;;1700211;29;20291;-70
2022/11/19 06:41:02;;;;;;;2.80;2.13;;;9.20;97.20;;;;;;1700582;29;20458;-70
2022/11/19 06:42:34;;;;;;;2.83;2.50;;;9.20;97.20;;;;;;1700622;29;20217;-71
2022/11/19 06:43:04;;;;;;;2.65;2.45;;;9.20;97.20;;;;;;1700549;29;20290;-71
2022/11/19 06:43:56;;;;;;;3.07;2.77;;;9.20;97.20;;;;;;1700383;29;20214;-71
2022/11/19 06:44:46;;;;;;;3.13;2.65;;;9.20;97.20;;;;;;1701358;29;20195;-70
2022/11/19 06:45:38;;;;;;;3.80;3.00;;;9.20;97.20;;;;;;1700634;29;20202;-70
2022/11/19 06:46:29;;;;;;;3.03;2.75;;;9.20;97.20;;;;;;1699883;29;20686;-69
2022/11/19 06:47:23;;;;;;;5.27;3.53;;;9.10;97.20;;;;;;1706686;29;20554;-69
2022/11/19 06:48:14;;;;;;;6.68;3.50;;;9.10;97.20;;;;;;1709141;28;20711;-69
2022/11/19 06:49:08;;;;;;;3.20;2.60;;;9.10;97.20;;;;;;1700273;29;20682;-69
2022/11/19 06:49:59;;;;;;;6.72;2.80;;;9.10;97.20;;;;;;1699882;29;20704;-68
2022/11/19 06:50:51;;;;;;;2.77;2.50;;;9.10;97.20;;;;;;1699943;29;20648;-69
2022/11/19 06:51:42;;;;;;;2.40;2.20;;;9.00;97.20;;;;;;1702819;28;20215;-69
2022/11/19 06:52:34;;;;;;;2.37;2.17;;;9.00;97.20;;;;;;1711349;28;20205;-69
2022/11/19 06:53:25;;;;;;;2.25;2.00;;;9.00;97.20;;;;;;1713039;28;20213;-69
2022/11/19 06:54:16;;;;;;;2.73;2.50;;;9.00;97.20;;;;;;1713786;28;20212;-69
2022/11/19 06:55:08;;;;;;;2.38;2.17;;;9.10;97.20;;;;;;1713720;28;20209;-70
2022/11/19 06:56:01;;;;;;;2.50;2.30;;;9.00;97.20;;;;;;1713802;28;20208;-70
2022/11/19 06:56:52;;;;;;;2.53;2.33;;;9.00;97.20;;;;;;1713807;28;20206;-69
2022/11/19 06:57:43;;;;;;;2.33;2.13;;;9.00;97.20;;;;;;1713579;28;20204;-69
2022/11/19 06:58:34;;;;;;;2.20;2.00;;;9.00;97.20;;;;;;1709494;28;20615;-70
2022/11/19 06:59:26;;;;;;;2.20;1.97;;;9.10;97.20;;;;;;1707094;29;20256;-69
2022/11/19 07:00:17;;;;;;;2.00;1.80;;;9.00;97.20;;;;;;1706838;29;20210;-70
2022/11/19 07:01:09;;;;;;;2.88;2.67;;;9.00;97.20;;;;;;1707160;29;20237;-70
2022/11/19 07:01:59;;;;;;;2.25;2.15;;;9.10;97.20;;;;;;1707281;29;20230;-69
2022/11/19 07:02:52;;;;;;;2.60;2.40;;;9.10;97.20;;;;;;1707172;29;20225;-69
2022/11/19 07:03:43;;;;;;;2.40;2.20;;;9.10;97.20;;;;;;1706817;29;20203;-69
2022/11/19 07:04:35;;;;;;;2.73;2.40;;;9.10;97.20;;;;;;1707153;29;20199;-69
2022/11/19 07:05:26;;;;;;;2.30;2.13;;;9.10;97.20;;;;;;1707078;29;20697;-69
2022/11/19 07:06:17;;;;;;;2.33;2.13;;;9.10;97.20;;;;;;1708386;28;20645;-70
2022/11/19 07:07:09;;;;;;;2.33;2.08;;;9.10;97.20;;;;;;1706591;29;20442;-69
2022/11/19 07:08:00;;;;;;;3.50;2.42;;;9.10;97.20;;;;;;1708050;29;20249;-69
2022/11/19 07:08:51;;;;;;;2.17;2.00;;;9.10;97.20;;;;;;1704499;29;20207;-69
2022/11/19 07:09:43;;;;;;;1.90;1.80;;;9.10;97.20;;;;;;1705129;29;20195;-69
2022/11/19 07:10:34;;;;;;;2.40;2.20;;;9.10;97.20;;;;;;1701642;29;20230;-69
2022/11/19 07:11:24;;;;;;;2.30;2.10;;;9.10;97.20;;;;;;1701736;29;20206;-70
2022/11/19 07:12:16;;;;;;;2.47;2.27;;;9.10;97.20;;;;;;1701864;29;20211;-70
2022/11/19 07:13:07;;;;;;;2.60;2.20;;;9.10;97.20;;;;;;1701729;29;20229;-70
2022/11/19 07:13:59;;;;;;;3.07;2.77;;;9.10;97.20;;;;;;1701546;29;20226;-69
2022/11/19 07:14:50;;;;;;;2.40;2.20;;;9.10;97.20;;;;;;1701538;29;20486;-69
2022/11/19 07:15:42;;;;;;;3.03;2.57;;;9.10;97.20;;;;;;1701810;29;20231;-69
2022/11/19 07:16:35;;;;;;;1.90;1.80;;;9.10;97.20;;;;;;1701750;29;20443;-70
2022/11/19 07:17:26;;;;;;;2.53;2.33;;;9.10;97.20;;;;;;1701649;29;20203;-70
2022/11/19 07:18:18;;;;;;;1.88;1.77;;;9.10;97.20;;;;;;1701799;29;20207;-69
2022/11/19 07:19:10;;;;;;;2.65;2.45;;;9.10;97.20;;;;;;1701778;29;20696;-69
2022/11/19 07:20:02;;;;;;;2.45;2.22;;;9.10;97.20;;;;;;1706172;29;20209;-69
2022/11/19 07:20:53;;;;;;;2.85;2.10;;;9.00;97.20;;;;;;1708210;29;20640;-69
2022/11/19 07:21:44;;;;;;;2.30;2.08;;;9.00;97.20;;;;;;1708323;29;20210;-69
2022/11/19 07:22:36;;;;;;;2.97;2.70;;;9.00;97.20;;;;;;1708305;29;20209;-69
2022/11/19 07:23:26;;;;;;;2.55;2.22;;;9.00;97.20;;;;;;1707984;29;20213;-69
2022/11/19 07:24:18;;;;;;;2.40;2.13;;;9.00;97.20;;;;;;1708322;29;20198;-69
2022/11/19 07:25:11;;;;;;;2.58;2.38;;;9.00;97.20;;;;;;1708152;29;20233;-69
2022/11/19 07:26:03;;;;;;;3.65;2.70;;;9.00;97.20;;;;;;1708266;29;20202;-69
2022/11/19 07:26:54;;;;;;;2.30;2.10;;;9.00;97.20;;;;;;1707870;29;20202;-69
2022/11/19 07:27:46;;;;;;;2.23;2.03;;;9.00;97.20;;;;;;1707507;29;20207;-69
2022/11/19 07:28:37;;;;;;;3.38;2.10;;;9.00;97.20;;;;;;1708182;29;20570;-69
2022/11/19 07:29:28;;;;;;;2.43;1.80;;;9.00;97.20;;;;;;1707850;29;20648;-70
2022/11/19 07:30:19;;;;;;;1.80;1.70;;;9.00;97.20;;;;;;1701418;29;20207;-69
2022/11/19 07:31:11;;;;;;;3.27;1.77;;;9.10;97.20;;;;;;1701665;29;20207;-69
2022/11/19 07:32:03;;;;;;;1.92;1.83;;;9.10;97.20;;;;;;1701634;29;20207;-70
2022/11/19 07:32:54;;;;;;;2.00;1.90;;;9.10;97.20;;;;;;1701609;29;20218;-69
2022/11/19 07:33:46;;;;;;;2.07;1.90;;;9.10;97.20;;;;;;1701407;29;20227;-69
2022/11/19 07:34:37;;;;;;;2.25;2.05;;;9.10;97.20;;;;;;1701531;29;20203;-69
2022/11/19 07:35:28;;;;;;;4.82;2.00;;;9.20;97.20;;;;;;1701530;29;20206;-69
2022/11/19 07:36:20;;;;;;;2.73;1.93;;;9.20;97.20;;;;;;1701055;29;20203;-69
2022/11/19 07:37:11;;;;;;;3.63;2.10;;;9.20;97.20;;;;;;1701413;29;20704;-70
2022/11/19 07:38:02;;;;;;;3.37;2.50;;;9.30;97.20;;;;;;1701647;29;20591;-69
2022/11/19 07:38:53;;;;;;;1.92;1.77;;;9.30;97.20;;;;;;1701622;29;20207;-69
2022/11/19 07:39:45;;;;;;;2.47;2.17;;;9.30;97.20;;;;;;1703409;29;20201;-69
2022/11/19 07:40:36;;;;;;;4.45;2.20;;;9.30;97.20;;;;;;1708147;29;20675;-69
2022/11/19 07:42:48;;;;;;;2.20;1.75;;;9.40;97.20;;;;;;1708291;29;20202;-69
2022/11/19 07:43:39;;;;;;;1.90;1.80;;;9.40;97.20;;;;;;1707985;29;20229;-69
2022/11/19 07:44:30;;;;;;;2.63;2.40;;;9.50;97.20;;;;;;1708074;29;20680;-69
2022/11/19 07:45:22;;;;;;;2.00;1.90;;;9.50;97.20;;;;;;1708259;29;20572;-69
2022/11/19 07:46:13;;;;;;;2.47;1.80;;;9.50;97.20;;;;;;1708238;29;20719;-69
2022/11/19 07:47:06;;;;;;;2.57;2.37;;;9.50;97.20;;;;;;1708129;29;20677;-69
2022/11/19 07:47:57;;;;;;;2.10;1.88;;;9.60;97.20;;;;;;1708098;29;20210;-69
2022/11/19 07:48:54;;;;;;;2.50;2.00;;;9.60;97.20;;;;;;1708104;29;20202;-70
2022/11/19 07:49:44;;;;;;;2.60;1.85;;;9.70;97.20;;;;;;1705958;29;20206;-69
2022/11/19 07:50:36;;;;;;;2.17;1.90;;;9.70;97.20;;;;;;1701400;29;20219;-70
2022/11/19 07:51:27;;;;;;;2.33;2.08;;;9.80;97.20;;;;;;1701564;29;20581;-68
2022/11/19 07:52:18;;;;;;;1.83;1.73;;;9.80;97.20;;;;;;1701560;29;20353;-69
2022/11/19 07:53:09;;;;;;;2.40;2.20;;;9.90;97.20;;;;;;1701426;29;20586;-69
2022/11/19 07:54:01;;;;;;;3.00;1.70;;;9.90;97.20;;;;;;1701368;29;20233;-68
2022/11/19 07:54:52;;;;;;;2.10;1.90;;;10.00;97.20;;;;;;1701609;29;20688;-69
2022/11/19 07:55:45;;;;;;;1.73;1.43;;;10.00;97.20;;;;;;1701524;29;20568;-69
2022/11/19 07:56:36;;;;;;;1.80;1.70;;;10.10;97.20;;;;;;1701483;29;20215;-69
2022/11/19 07:57:28;;;;;;;1.85;1.52;;;10.10;97.20;;;;;;1701513;29;20234;-68
2022/11/19 07:58:19;;;;;;;1.95;1.75;;;10.20;97.20;;;;;;1701483;29;20207;-68
2022/11/19 07:59:11;;;;;;;2.20;1.90;;;10.20;97.20;;;;;;1701387;29;20211;-69
2022/11/19 08:00:03;;;;;;;3.13;1.70;;;10.20;97.20;;;;;;1705156;29;20199;-69
2022/11/19 08:00:55;;;;;;;1.65;1.40;;;10.20;97.20;;;;;;1707981;29;20592;-69
2022/11/19 08:01:46;;;;;;;1.75;1.55;;;10.20;97.20;;;;;;1708025;29;20209;-69
2022/11/19 08:02:37;;;;;;;1.53;1.43;;;10.20;97.20;;;;;;1708116;29;20198;-68
2022/11/19 08:03:28;;;;;;;3.50;1.77;;;10.20;97.20;;;;;;1707758;29;20202;-69
2022/11/19 08:04:21;;;;;;;1.40;1.30;;;10.20;97.20;;;;;;1708094;29;20209;-68
2022/11/19 08:05:12;;;;;;;1.50;1.40;;;10.20;97.20;;;;;;1707905;29;20218;-68
2022/11/19 08:06:03;;;;;;;1.97;1.53;;;10.30;97.20;;;;;;1708186;29;20217;-69
2022/11/19 08:06:55;;;;;;;1.42;1.33;;;10.30;97.20;;;;;;1708051;29;20225;-69
2022/11/19 08:07:46;;;;;;;1.50;1.40;;;10.20;97.20;;;;;;1707939;29;20202;-68
2022/11/19 08:08:37;;;;;;;1.57;1.40;;;10.20;97.20;;;;;;1708036;29;20204;-68
2022/11/19 08:09:28;;;;;;;2.00;1.20;;;10.20;97.20;;;;;;1707986;29;20205;-69
2022/11/19 08:10:20;;;;;;;1.40;1.30;;;10.20;97.20;;;;;;1701796;29;20201;-69
2022/11/19 08:11:13;;;;;;;1.60;1.50;;;10.20;97.20;;;;;;1701326;29;20259;-69
2022/11/19 08:12:06;;;;;;;1.52;1.42;;;10.20;97.20;;;;;;1701454;29;20207;-69
2022/11/19 08:13:02;;;;;;;1.60;1.50;;;10.20;97.20;;;;;;1701364;29;20584;-69
2022/11/19 08:13:53;;;;;;;1.08;0.90;;;10.20;97.20;;;;;;1701061;29;20207;-69
2022/11/19 08:14:44;;;;;;;1.85;1.20;;;10.20;97.20;;;;;;1701330;29;20214;-69
2022/11/19 08:15:36;;;;;;;2.13;1.20;;;10.20;97.20;;;;;;1701364;29;20213;-68
2022/11/19 08:18:45;;;;;;;1.65;1.50;;;10.30;97.20;;;;;;1701452;29;20207;-68
2022/11/19 08:19:38;;;;;;;3.53;1.70;;;10.30;97.20;;;;;;1701323;29;20286;-68
2022/11/19 08:20:28;;;;;;;2.45;1.40;;;10.30;97.20;;;;;;1701221;29;20203;-68
2022/11/19 08:21:20;;;;;;;2.00;1.60;;;10.30;97.20;;;;;;1701414;29;20207;-68
2022/11/19 08:22:11;;;;;;;2.47;1.50;;;10.40;97.20;;;;;;1701323;29;20665;-68
2022/11/19 08:23:03;;;;;;;1.63;1.53;;;10.40;97.20;;;;;;1701387;29;20550;-69
2022/11/19 08:23:54;;;;;;;1.35;1.25;;;10.40;97.20;;;;;;1701078;29;20207;-69
2022/11/19 08:24:45;;;;;;;1.67;1.50;;;10.40;97.20;;;;;;1701269;29;20700;-69
2022/11/19 08:25:37;;;;;;;1.80;1.70;;;10.40;97.20;;;;;;1701390;29;20227;-68
2022/11/19 08:26:29;;;;;;;1.60;1.50;;;10.40;97.20;;;;;;1701263;29;20207;-68
2022/11/19 08:27:20;;;;;;;1.52;1.30;;;10.50;97.20;;;;;;1701270;29;20203;-69
2022/11/19 08:28:12;;;;;;;1.50;1.40;;;10.50;97.20;;;;;;1701274;29;20204;-69
2022/11/19 08:29:03;;;;;;;1.48;1.38;;;10.50;97.20;;;;;;1701450;29;20218;-69
2022/11/19 08:29:55;;;;;;;2.05;1.50;;;10.50;97.20;;;;;;1703259;29;20290;-69
2022/11/19 08:30:46;;;;;;;1.67;1.50;;;10.50;97.20;;;;;;1707331;29;20223;-69
2022/11/19 08:31:37;;;;;;;1.70;1.60;;;10.50;97.20;;;;;;1707868;29;20203;-69
2022/11/19 08:32:28;;;;;;;2.40;2.20;;;10.50;97.20;;;;;;1707830;29;20699;-68
2022/11/19 08:33:20;;;;;;;1.93;1.47;;;10.60;97.20;;;;;;1707571;29;20571;-69
2022/11/19 08:34:11;;;;;;;3.65;1.50;;;10.60;97.20;;;;;;1707807;29;20230;-68
2022/11/19 08:35:05;;;;;;;1.50;1.40;;;10.60;97.20;;;;;;1707772;29;20209;-68
2022/11/19 08:35:56;;;;;;;2.08;1.10;;;10.60;97.20;;;;;;1707793;29;20229;-68
2022/11/19 08:36:47;;;;;;;1.40;1.30;;;10.60;97.20;;;;;;1707741;29;20225;-69
2022/11/19 08:37:38;;;;;;;1.42;1.10;;;10.60;97.20;;;;;;1707882;29;20437;-69
2022/11/19 08:38:30;;;;;;;1.97;1.00;;;10.60;97.20;;;;;;1707745;29;20205;-69
2022/11/19 08:39:21;;;;;;;1.00;0.90;;;10.60;97.20;;;;;;1707833;29;20211;-68
2022/11/19 08:40:12;;;;;;;1.20;1.00;;;10.60;97.20;;;;;;1703071;29;20230;-69
2022/11/19 08:43:21;;;;;;;1.27;1.02;;;10.70;97.20;;;;;;1701073;29;20198;-69
2022/11/19 08:44:13;;;;;;;1.10;1.00;;;10.70;97.20;;;;;;1701213;29;20321;-68
2022/11/19 08:45:05;;;;;;;2.28;1.20;;;10.70;97.20;;;;;;1701154;29;20393;-69
2022/11/19 08:45:57;;;;;;;2.05;1.38;;;10.70;97.20;;;;;;1701000;29;20231;-68
2022/11/19 08:46:49;;;;;;;1.40;1.10;;;10.70;97.20;;;;;;1701121;29;20207;-69
2022/11/19 08:47:40;;;;;;;1.77;1.52;;;10.70;97.20;;;;;;1701114;29;20199;-69
2022/11/19 08:48:31;;;;;;;2.10;1.30;;;10.70;97.20;;;;;;1701030;29;20203;-69
2022/11/19 08:49:23;;;;;;;1.90;1.10;;;10.70;97.20;;;;;;1701164;29;20209;-69
2022/11/19 08:50:15;;;;;;;1.40;1.23;;;10.70;97.20;;;;;;1704941;29;20205;-69
2022/11/19 08:51:09;;;;;;;1.40;1.05;;;10.70;97.20;;;;;;1707712;29;20261;-69
2022/11/19 08:51:59;;;;;;;3.28;1.65;;;10.70;97.20;;;;;;1707781;29;20214;-70
2022/11/19 08:52:58;;;;;;;2.63;2.43;;;10.70;97.20;;;;;;1707644;29;20285;-69
2022/11/19 08:53:50;;;;;;;4.80;2.80;;;10.70;97.20;;;;;;1707442;29;20233;-69
2022/11/19 08:54:42;;;;;;;1.65;1.55;;;10.70;97.20;;;;;;1707652;29;20230;-69
2022/11/19 08:55:33;;;;;;;2.85;2.22;;;10.60;97.20;;;;;;1707694;29;20211;-69
2022/11/19 08:56:25;;;;;;;2.80;2.60;;;10.60;97.20;;;;;;1707723;29;20297;-68
2022/11/19 08:57:15;;;;;;;4.40;4.00;;;10.60;97.20;;;;;;1707736;29;20676;-69
2022/11/19 08:58:08;;;;;;;4.10;2.37;;;10.50;97.20;;;;;;1707632;29;20570;-69
2022/11/19 08:58:58;;;;;;;3.40;2.13;;;10.50;97.20;;;;;;1707772;29;20241;-69
2022/11/19 08:59:51;;;;;;;2.33;2.03;;;10.50;97.20;;;;;;1706329;29;20209;-69
2022/11/19 09:00:42;;;;;;;1.50;1.40;;;10.50;97.20;;;;;;1700393;29;20368;-69
2022/11/19 09:01:33;;;;;;;2.78;2.58;;;10.40;97.20;;;;;;1706986;29;20203;-69
2022/11/19 09:02:24;;;;;;;1.80;1.50;;;10.50;97.20;;;;;;1707460;29;20207;-69
2022/11/19 09:03:16;;;;;;;1.55;1.30;;;10.50;97.20;;;;;;1707208;29;20195;-69
2022/11/19 09:04:07;;;;;;;1.58;1.48;;;10.40;97.20;;;;;;1707489;29;20226;-69
2022/11/19 09:04:59;;;;;;;1.40;1.20;;;10.40;97.20;;;;;;1707426;29;20201;-69
2022/11/19 09:05:57;;;;;;;1.50;1.40;;;10.40;97.20;;;;;;1707490;29;20227;-69
2022/11/19 09:06:49;;;;;;;1.20;1.10;;;10.30;97.20;;;;;;1707420;29;20205;-69
2022/11/19 09:07:40;;;;;;;1.80;1.42;;;10.30;97.20;;;;;;1707594;29;20645;-69
2022/11/19 09:08:32;;;;;;;1.40;1.30;;;10.30;97.20;;;;;;1707535;29;20565;-69
2022/11/19 09:09:23;;;;;;;2.78;1.00;;;10.20;97.20;;;;;;1707535;29;20533;-69
2022/11/19 09:10:15;;;;;;;2.10;1.50;;;10.20;97.20;;;;;;1702877;29;20222;-69
2022/11/19 09:11:07;;;;;;;1.30;1.20;;;10.20;97.20;;;;;;1707364;29;20203;-69
2022/11/19 09:11:59;;;;;;;3.72;1.30;;;10.10;97.20;;;;;;1707038;29;20257;-69
2022/11/19 09:12:51;;;;;;;2.22;1.45;;;10.10;97.20;;;;;;1706913;29;20653;-69
2022/11/19 09:13:43;;;;;;;1.58;1.30;;;10.20;97.20;;;;;;1707298;28;20205;-69
2022/11/19 09:14:34;;;;;;;2.50;1.65;;;10.20;97.20;;;;;;1707432;29;20237;-69
2022/11/19 09:15:26;;;;;;;1.23;1.13;;;10.30;97.20;;;;;;1707520;29;20201;-69
2022/11/19 09:16:16;;;;;;;1.38;1.17;;;10.30;97.20;;;;;;1707554;29;20943;-69
2022/11/19 09:17:08;;;;;;;1.50;1.40;;;10.30;97.20;;;;;;1707374;29;20652;-69
2022/11/19 09:17:59;;;;;;;1.25;1.15;;;10.30;97.20;;;;;;1707481;29;20199;-69
2022/11/19 09:18:50;;;;;;;1.33;1.23;;;10.30;97.20;;;;;;1707431;28;20712;-69
2022/11/19 09:19:41;;;;;;;1.30;1.20;;;10.30;97.20;;;;;;1707569;29;20206;-69
2022/11/19 09:20:33;;;;;;;1.73;1.60;;;10.30;97.20;;;;;;1706949;29;20215;-69
2022/11/19 09:21:25;;;;;;;1.10;1.00;;;10.30;97.20;;;;;;1707462;29;20210;-69
2022/11/19 09:22:17;;;;;;;1.20;1.10;;;10.30;97.20;;;;;;1707574;29;20206;-69
2022/11/19 09:23:08;;;;;;;1.52;1.25;;;10.30;97.20;;;;;;1707369;29;20198;-69
2022/11/19 09:23:59;;;;;;;1.48;1.38;;;10.30;97.20;;;;;;1707179;29;20194;-69
2022/11/19 09:24:50;;;;;;;5.30;1.05;;;10.30;97.20;;;;;;1707267;29;20213;-69
2022/11/19 09:25:42;;;;;;;1.40;1.30;;;10.40;97.20;;;;;;1707464;29;20213;-69
2022/11/19 09:26:32;;;;;;;1.30;1.20;;;10.40;97.20;;;;;;1707373;29;20198;-69
2022/11/19 09:27:24;;;;;;;1.70;1.20;;;10.40;97.20;;;;;;1707395;29;20203;-69
2022/11/19 09:28:15;;;;;;;2.13;1.20;;;10.40;97.20;;;;;;1707404;29;20209;-69
2022/11/19 09:29:06;;;;;;;1.93;1.30;;;10.40;97.20;;;;;;1706945;28;20202;-69
2022/11/19 09:29:57;;;;;;;1.20;1.10;;;10.50;97.20;;;;;;1706366;29;20206;-69
2022/11/19 09:30:55;;;;;;;1.50;1.27;;;10.50;97.20;;;;;;1707160;29;20218;-69
2022/11/19 09:31:47;;;;;;;1.15;1.05;;;10.50;97.20;;;;;;1706686;29;20222;-69
2022/11/19 09:32:38;;;;;;;3.85;1.15;;;10.50;97.20;;;;;;1707470;29;20649;-68
2022/11/19 09:33:31;;;;;;;2.20;1.30;;;10.50;97.20;;;;;;1707106;29;20548;-69
2022/11/19 09:34:22;;;;;;;1.52;1.33;;;10.50;97.20;;;;;;1707457;29;20206;-69
2022/11/19 09:35:13;;;;;;;2.07;1.23;;;10.60;97.20;;;;;;1707307;29;20199;-69
2022/11/19 09:36:05;;;;;;;1.48;1.38;;;10.60;97.20;;;;;;1707288;29;20203;-69
2022/11/19 09:36:58;;;;;;;1.20;1.10;;;10.70;97.20;;;;;;1707372;28;20205;-68
2022/11/19 09:37:48;;;;;;;1.52;1.15;;;10.70;97.20;;;;;;1707268;29;20277;-69
2022/11/19 09:38:41;;;;;;;2.43;1.20;;;10.70;97.20;;;;;;1707426;29;20723;-69
2022/11/19 09:39:31;;;;;;;1.50;1.40;;;10.70;97.20;;;;;;1707241;29;20205;-69
2022/11/19 09:40:24;;;;;;;2.07;1.67;;;10.80;97.20;;;;;;1706504;29;20289;-69
2022/11/19 09:41:33;;;;;;;1.58;1.40;;;10.80;97.20;;;;;;1707407;29;20453;-69
2022/11/19 09:42:35;;;;;;;1.55;1.42;;;10.80;97.20;;;;;;1706060;29;20202;-69
2022/11/19 09:43:37;;;;;;;1.90;1.80;;;10.90;97.20;;;;;;1706407;29;20203;-69
2022/11/19 09:44:45;;;;;;;1.50;1.40;;;10.90;97.20;;;;;;1707300;28;20197;-69
2022/11/19 09:45:47;;;;;;;2.35;1.40;;;11.00;97.20;;;;;;1706572;29;20207;-69
2022/11/19 09:46:49;;;;;;;2.08;1.60;;;11.00;97.20;;;;;;1707225;29;20199;-68
2022/11/19 09:48:13;;;;;;;2.08;1.90;;;11.10;97.20;;;;;;1707278;29;20214;-69
2022/11/19 09:49:09;;;;;;;1.33;1.23;;;11.20;97.20;;;;;;1707416;29;20288;-69
2022/11/19 09:50:11;;;;;;;2.05;1.65;;;11.20;97.20;;;;;;1707479;29;20202;-69
2022/11/19 09:51:07;;;;;;;4.28;1.55;;;11.20;97.20;;;;;;1707123;29;20221;-69
2022/11/19 09:52:06;;;;;;;2.17;1.50;;;11.30;97.20;;;;;;1706856;29;20261;-69
2022/11/19 09:53:00;;;;;;;2.22;1.70;;;11.30;97.20;;;;;;1706696;29;20237;-69
2022/11/19 09:53:57;;;;;;;1.65;1.55;;;11.30;97.20;;;;;;1706272;29;20610;-69
2022/11/19 09:54:50;;;;;;;1.88;1.60;;;11.30;97.20;;;;;;1707304;29;20218;-69
2022/11/19 09:55:44;;;;;;;1.67;1.58;;;11.30;97.20;;;;;;1707404;29;20202;-69
2022/11/19 09:56:38;;;;;;;2.97;2.20;;;11.40;97.20;;;;;;1707384;29;20226;-69
2022/11/19 09:57:36;;;;;;;2.03;1.52;;;11.40;97.20;;;;;;1707068;29;20561;-69
2022/11/19 09:58:33;;;;;;;1.83;1.73;;;11.40;97.20;;;;;;1707595;29;20563;-69
2022/11/19 09:59:30;;;;;;;3.40;1.90;;;11.40;97.20;;;;;;1707417;29;20282;-69
2022/11/19 10:00:23;;;;;;;2.55;1.40;;;11.30;97.20;;;;;;1707206;29;20210;-69
2022/11/19 10:01:18;;;;;;;1.88;1.65;;;11.20;97.20;;;;;;1707443;29;20198;-69
2022/11/19 10:02:16;;;;;;;4.50;1.70;;;11.20;97.20;;;;;;1707302;29;20210;-69
2022/11/19 10:03:14;;;;;;;2.45;1.63;;;11.10;97.20;;;;;;1707378;29;20253;-69
2022/11/19 10:04:05;;;;;;;1.88;1.70;;;11.10;97.20;;;;;;1705737;29;20206;-69
2022/11/19 10:04:57;;;;;;;2.13;1.70;;;11.10;97.20;;;;;;1707287;29;20213;-69
2022/11/19 10:06:19;;;;;;;1.90;1.63;;;11.10;97.20;;;;;;1707215;29;20245;-69
2022/11/19 10:07:20;;;;;;;1.40;1.30;;;11.10;97.20;;;;;;1707321;29;20243;-69
2022/11/19 10:08:28;;;;;;;1.90;1.63;;;11.10;97.20;;;;;;1707333;29;20551;-69
2022/11/19 10:09:32;;;;;;;1.58;1.48;;;11.10;97.20;;;;;;1707413;29;20210;-69
2022/11/19 10:10:35;;;;;;;2.60;1.75;;;11.10;97.20;;;;;;1707232;29;20206;-69
2022/11/19 10:11:38;;;;;;;3.92;1.60;;;11.10;97.20;;;;;;1707355;29;20206;-69
2022/11/19 10:12:47;;;;;;;2.35;1.60;;;11.00;97.20;;;;;;1707333;29;20322;-68
2022/11/19 10:13:50;;;;;;;2.63;1.70;;;11.00;97.20;;;;;;1707080;29;20206;-69
2022/11/19 10:15:12;;;;;;;3.25;2.00;;;10.90;97.20;;;;;;1700734;29;20207;-69
2022/11/19 10:16:20;;;;;;;2.03;1.60;;;10.90;97.20;;;;;;1700583;29;20207;-69
2022/11/19 10:17:25;;;;;;;1.60;1.50;;;10.90;97.20;;;;;;1705874;29;20199;-69
2022/11/19 10:18:23;;;;;;;1.95;1.25;;;10.80;97.20;;;;;;1707504;29;20202;-68
2022/11/19 10:19:24;;;;;;;1.40;1.30;;;10.80;97.20;;;;;;1707021;29;20205;-69
2022/11/19 10:20:27;;;;;;;1.98;1.42;;;10.80;97.20;;;;;;1707295;29;20234;-69
2022/11/19 10:21:24;;;;;;;1.40;1.30;;;10.80;97.20;;;;;;1707446;29;20241;-69
2022/11/19 10:22:22;;;;;;;4.20;1.73;;;10.80;97.20;;;;;;1707360;29;20226;-69
2022/11/19 10:23:16;;;;;;;2.03;1.45;;;10.80;97.20;;;;;;1707136;29;20343;-69
2022/11/19 10:24:16;;;;;;;2.53;1.40;;;10.80;97.20;;;;;;1704059;29;20239;-69
2022/11/19 10:25:15;;;;;;;2.13;1.90;;;10.80;97.20;;;;;;1700732;29;20218;-68
2022/11/19 10:26:12;;;;;;;2.08;1.98;;;10.80;97.20;;;;;;1700622;29;20611;-69
2022/11/19 10:27:11;;;;;;;2.90;2.60;;;10.80;97.20;;;;;;1700729;29;20219;-69
2022/11/19 10:28:11;;;;;;;4.00;2.40;;;10.80;97.20;;;;;;1700704;29;20258;-69
2022/11/19 10:29:11;;;;;;;2.63;1.92;;;10.80;97.20;;;;;;1700754;29;20219;-69
2022/11/19 10:30:13;;;;;;;2.28;1.70;;;10.80;97.20;;;;;;1700800;29;20234;-69
2022/11/19 10:31:07;;;;;;;1.80;1.50;;;10.80;97.20;;;;;;1700640;29;20235;-69
2022/11/19 10:32:20;;;;;;;1.90;1.63;;;10.80;97.20;;;;;;1700634;29;20207;-69
2022/11/19 10:33:17;;;;;;;2.17;1.75;;;10.80;97.20;;;;;;1700478;29;20211;-69
2022/11/19 10:34:16;;;;;;;1.60;1.20;;;10.80;97.20;;;;;;1703311;29;20203;-69
2022/11/19 10:35:14;;;;;;;1.50;1.15;;;10.80;97.20;;;;;;1707214;29;20214;-69
2022/11/19 10:36:10;;;;;;;1.85;1.13;;;10.80;97.20;;;;;;1706965;29;20275;-69
2022/11/19 10:37:03;;;;;;;2.15;1.50;;;10.80;97.20;;;;;;1707232;29;20234;-69
2022/11/19 10:38:00;;;;;;;2.53;1.42;;;10.70;97.20;;;;;;1707323;29;20203;-69
2022/11/19 10:38:59;;;;;;;2.40;1.42;;;10.70;97.20;;;;;;1707228;29;20202;-69
2022/11/19 10:39:55;;;;;;;2.40;1.58;;;10.70;97.20;;;;;;1707225;29;20194;-69
2022/11/19 10:40:51;;;;;;;2.10;1.58;;;10.70;97.20;;;;;;1707604;28;20234;-69
2022/11/19 10:41:47;;;;;;;2.55;1.70;;;10.70;97.20;;;;;;1708610;29;20202;-69
2022/11/19 10:42:42;;;;;;;2.55;1.70;;;10.70;97.20;;;;;;1708600;29;20211;-68
2022/11/19 10:43:38;;;;;;;1.83;1.40;;;10.70;97.20;;;;;;1708338;29;20220;-68
2022/11/19 10:44:39;;;;;;;1.70;1.50;;;10.70;97.20;;;;;;1706853;29;20635;-69
2022/11/19 10:45:30;;;;;;;1.73;1.45;;;10.70;97.20;;;;;;1708565;29;20369;-69